Time;durP1;ratioP1;P1;durP2;ratioP2;P2;SDS_P1;SDS_P2;PMS_P1;PMS_P2;Temp;Humidity;BMP_temperature;BMP_pressure;BME280_temperature;BME280_humidity;BME280_pressure;Samples;Min_cycle;Max_cycle;Signal;HPM_P1;HPM_P2
2021/01/15 00:01:38;;;;;;;;;;;1.60;99.90;;;;;;5088918;28;19924;-72
2021/01/15 00:04:04;;;;;;;;;;;1.70;99.90;;;;;;5077917;28;19924;-73
2021/01/15 00:06:30;;;;;;;;;;;1.70;99.90;;;;;;5092734;28;20446;-74
2021/01/15 00:08:57;;;;;;;;;;;1.70;99.90;;;;;;5093203;28;19924;-73
2021/01/15 00:11:23;;;;;;;;;;;1.60;99.90;;;;;;5092253;28;19977;-73
2021/01/15 00:13:50;;;;;;;;;;;1.60;99.90;;;;;;5093058;28;19924;-73
2021/01/15 00:16:17;;;;;;;;;;;1.50;99.90;;;;;;5084070;28;19924;-72
2021/01/15 00:18:43;;;;;;;;;;;1.50;99.90;;;;;;5092703;28;19924;-72
2021/01/15 00:21:09;;;;;;;;;;;1.50;99.90;;;;;;5092279;28;19932;-73
2021/01/15 00:23:35;;;;;;;;;;;1.50;99.90;;;;;;5092666;28;19985;-72
2021/01/15 00:26:01;;;;;;;;;;;1.50;99.90;;;;;;5092905;28;19924;-73
2021/01/15 00:28:26;;;;;;;;;;;1.50;99.90;;;;;;5091441;28;20007;-73
2021/01/15 00:30:53;;;;;;;;;;;1.60;99.90;;;;;;5072205;28;19925;-72
2021/01/15 00:33:19;;;;;;;;;;;1.70;99.90;;;;;;5072526;28;19924;-73
2021/01/15 00:35:45;;;;;;;;;;;1.60;99.90;;;;;;5072317;28;19958;-73
2021/01/15 00:38:11;;;;;;;;;;;0.50;99.90;;;;;;5087321;28;19932;-73
2021/01/15 00:40:37;;;;;;;;;;;1.60;99.90;;;;;;5092380;28;20083;-72
2021/01/15 00:43:03;;;;;;;;;;;1.60;99.90;;;;;;5092319;28;19935;-72
2021/01/15 00:45:31;;;;;;;;;;;1.60;99.90;;;;;;5082610;28;19924;-72
2021/01/15 00:47:58;;;;;;;;;;;1.60;99.90;;;;;;5072299;28;19930;-72
2021/01/15 00:50:24;;;;;;;;;;;1.60;99.90;;;;;;5072223;28;19924;-73
2021/01/15 00:52:53;;;;;;;;;;;1.50;99.90;;;;;;5072113;28;20289;-73
2021/01/15 00:55:19;;;;;;;;;;;1.50;99.90;;;;;;5072301;28;19929;-72
2021/01/15 00:57:45;;;;;;;;;;;1.50;99.90;;;;;;5073264;28;19929;-72
2021/01/15 01:00:11;;;;;;;;;;;1.40;99.90;;;;;;5071816;28;20296;-72
2021/01/15 01:02:37;;;;;;;;;;;1.40;99.90;;;;;;5072065;28;19924;-73
2021/01/15 01:05:05;;;;;;;;;;;1.40;99.90;;;;;;5080282;28;20312;-72
2021/01/15 01:07:31;;;;;;;;;;;1.30;99.90;;;;;;5077983;28;19954;-73
2021/01/15 01:09:57;;;;;;;;;;;1.30;99.90;;;;;;5072883;28;19932;-73
2021/01/15 01:12:23;;;;;;;;;;;1.20;99.90;;;;;;5083895;28;19924;-72
2021/01/15 01:14:49;;;;;;;;;;;1.20;99.90;;;;;;5071888;28;19932;-72
2021/01/15 01:17:15;;;;;;;;;;;1.20;99.90;;;;;;5072294;28;19935;-72
2021/01/15 01:19:41;;;;;;;;;;;1.10;99.90;;;;;;5071941;28;19932;-73
2021/01/15 01:22:08;;;;;;;;;;;1.10;99.90;;;;;;5072680;28;20023;-72
2021/01/15 01:24:34;;;;;;;;;;;1.10;99.90;;;;;;5094684;28;20376;-72
2021/01/15 01:27:00;;;;;;;;;;;1.10;99.90;;;;;;5095757;28;19924;-72
2021/01/15 01:29:26;;;;;;;;;;;1.00;99.90;;;;;;5084997;28;20335;-73
2021/01/15 01:31:52;;;;;;;;;;;1.00;99.90;;;;;;5092181;28;19970;-73
2021/01/15 01:34:18;;;;;;;;;;;1.00;99.90;;;;;;5095362;28;19924;-72
2021/01/15 01:36:44;;;;;;;;;;;1.00;99.90;;;;;;5075956;28;19924;-72
2021/01/15 01:39:11;;;;;;;;;;;1.00;99.90;;;;;;5075888;28;20436;-72
2021/01/15 01:41:37;;;;;;;;;;;1.10;99.90;;;;;;5094646;28;19924;-73
2021/01/15 01:44:03;;;;;;;;;;;1.10;99.90;;;;;;5095854;28;20410;-72
2021/01/15 01:46:29;;;;;;;;;;;1.10;99.90;;;;;;5095679;28;19924;-72
2021/01/15 01:48:55;;;;;;;;;;;1.10;99.90;;;;;;5075686;28;20363;-72
2021/01/15 01:51:21;;;;;;;;;;;1.00;99.90;;;;;;5075395;28;19974;-72
2021/01/15 01:53:47;;;;;;;;;;;1.00;99.90;;;;;;5075526;28;19924;-72
2021/01/15 01:56:14;;;;;;;;;;;1.00;99.90;;;;;;5084005;28;19924;-72
2021/01/15 01:58:40;;;;;;;;;;;1.00;99.90;;;;;;5081995;28;19927;-72
2021/01/15 02:01:06;;;;;;;;;;;1.00;99.90;;;;;;5094589;28;19924;-72
2021/01/15 02:03:33;;;;;;;;;;;1.00;99.90;;;;;;5094458;28;19962;-72
2021/01/15 02:05:59;;;;;;;;;;;1.00;99.90;;;;;;5095556;28;19970;-72
2021/01/15 02:08:27;;;;;;;;;;;1.00;99.90;;;;;;5095156;28;19932;-73
2021/01/15 02:10:57;;;;;;;;;;;1.00;99.90;;;;;;5094964;28;19931;-72
2021/01/15 02:13:31;;;;;;;;;;;1.00;99.90;;;;;;5094676;28;19969;-72
2021/01/15 02:16:01;;;;;;;;;;;1.00;99.90;;;;;;5095128;28;19925;-73
2021/01/15 02:18:29;;;;;;;;;;;1.10;99.90;;;;;;5093379;28;19924;-73
2021/01/15 02:21:10;;;;;;;;;;;1.10;99.90;;;;;;5094606;28;19931;-73
2021/01/15 02:23:38;;;;;;;;;;;1.00;99.90;;;;;;5094882;28;19985;-73
2021/01/15 02:26:17;;;;;;;;;;;1.10;99.90;;;;;;5093417;28;19977;-73
2021/01/15 02:28:53;;;;;;;;;;;1.10;99.90;;;;;;5080253;28;19977;-73
2021/01/15 02:31:31;;;;;;;;;;;1.10;99.90;;;;;;5094492;28;20301;-72
2021/01/15 02:34:09;;;;;;;;;;;1.10;99.90;;;;;;5094692;28;19936;-73
2021/01/15 02:36:37;;;;;;;;;;;1.10;99.90;;;;;;5092838;28;20077;-72
2021/01/15 02:39:08;;;;;;;;;;;1.00;99.90;;;;;;5091776;28;19924;-73
2021/01/15 02:41:34;;;;;;;;;;;1.00;99.90;;;;;;5093968;28;19985;-73
2021/01/15 02:44:03;;;;;;;;;;;1.00;99.90;;;;;;5094759;28;19924;-73
2021/01/15 02:46:37;;;;;;;;;;;1.00;99.90;;;;;;5094373;28;19967;-73
2021/01/15 02:49:05;;;;;;;;;;;1.00;99.90;;;;;;5094602;28;19931;-73
2021/01/15 02:51:32;;;;;;;;;;;0.90;99.90;;;;;;5091657;28;19928;-73
2021/01/15 02:53:58;;;;;;;;;;;0.90;99.90;;;;;;5083470;28;19931;-73
2021/01/15 02:59:27;;;;;;;;;;;0.90;99.90;;;;;;5089056;28;19958;-73
2021/01/15 03:01:59;;;;;;;;;;;1.00;99.90;;;;;;5085719;28;20389;-73
2021/01/15 03:04:30;;;;;;;;;;;1.10;99.90;;;;;;5074065;28;20419;-73
2021/01/15 03:06:58;;;;;;;;;;;1.10;99.90;;;;;;5088830;28;19974;-73
2021/01/15 03:09:26;;;;;;;;;;;1.10;99.90;;;;;;5080980;28;20007;-73
2021/01/15 03:11:52;;;;;;;;;;;1.10;99.90;;;;;;5073451;28;20028;-72
2021/01/15 03:14:18;;;;;;;;;;;1.10;99.90;;;;;;5073717;28;19925;-73
2021/01/15 03:16:44;;;;;;;;;;;1.10;99.90;;;;;;5077613;28;19924;-73
2021/01/15 03:19:11;;;;;;;;;;;1.10;99.90;;;;;;5073933;28;20015;-73
2021/01/15 03:21:38;;;;;;;;;;;1.10;99.90;;;;;;5073541;28;20396;-73
2021/01/15 03:24:05;;;;;;;;;;;1.10;99.90;;;;;;5092116;28;20408;-73
2021/01/15 03:26:31;;;;;;;;;;;1.10;99.90;;;;;;5085068;28;19972;-73
2021/01/15 03:28:57;;;;;;;;;;;1.10;99.90;;;;;;5079864;28;20011;-73
2021/01/15 03:31:23;;;;;;;;;;;1.10;99.90;;;;;;5073402;28;19932;-73
2021/01/15 03:33:49;;;;;;;;;;;1.20;99.90;;;;;;5073635;28;19925;-73
2021/01/15 03:36:16;;;;;;;;;;;1.10;99.90;;;;;;5073517;28;20343;-73
2021/01/15 03:38:43;;;;;;;;;;;1.10;99.90;;;;;;5093294;28;20412;-73
2021/01/15 03:41:09;;;;;;;;;;;1.10;99.90;;;;;;5092991;28;19963;-73
2021/01/15 03:43:35;;;;;;;;;;;1.10;99.90;;;;;;5093419;28;20420;-72
2021/01/15 03:46:01;;;;;;;;;;;1.10;99.90;;;;;;5093091;28;19946;-73
2021/01/15 03:48:27;;;;;;;;;;;1.10;99.90;;;;;;5093054;28;20014;-73
2021/01/15 03:50:53;;;;;;;;;;;1.10;99.90;;;;;;5090992;28;19924;-73
2021/01/15 03:53:20;;;;;;;;;;;1.10;99.90;;;;;;5093390;28;19923;-73
2021/01/15 03:55:47;;;;;;;;;;;1.10;99.90;;;;;;5092855;28;20316;-73
2021/01/15 03:58:13;;;;;;;;;;;1.10;99.90;;;;;;5080022;28;19971;-73
2021/01/15 04:00:39;;;;;;;;;;;1.10;99.90;;;;;;5074704;28;20486;-73
2021/01/15 04:03:05;;;;;;;;;;;1.10;99.90;;;;;;5073125;28;20409;-73
2021/01/15 04:05:32;;;;;;;;;;;1.10;99.90;;;;;;5073190;28;19925;-73
2021/01/15 04:07:58;;;;;;;;;;;1.10;99.90;;;;;;5086829;28;19924;-73
2021/01/15 04:10:24;;;;;;;;;;;1.20;99.90;;;;;;5078637;28;19950;-73
2021/01/15 04:12:51;;;;;;;;;;;1.10;99.90;;;;;;5072572;28;19924;-73
2021/01/15 04:15:17;;;;;;;;;;;1.10;99.90;;;;;;5072832;28;20011;-72
2021/01/15 04:17:44;;;;;;;;;;;1.10;99.90;;;;;;5083803;28;19924;-73
2021/01/15 04:20:10;;;;;;;;;;;1.10;99.90;;;;;;5072410;28;20443;-73
2021/01/15 04:22:36;;;;;;;;;;;1.10;99.90;;;;;;5075757;28;19968;-73
2021/01/15 04:25:03;;;;;;;;;;;1.10;99.90;;;;;;5092688;28;19978;-73
2021/01/15 04:27:30;;;;;;;;;;;1.10;99.90;;;;;;5093134;28;20007;-73
2021/01/15 04:29:56;;;;;;;;;;;1.10;99.90;;;;;;5087211;28;20007;-73
2021/01/15 04:32:22;;;;;;;;;;;1.10;99.90;;;;;;5073770;28;19974;-73
2021/01/15 04:34:48;;;;;;;;;;;1.10;99.90;;;;;;5072623;28;19924;-72
2021/01/15 04:37:14;;;;;;;;;;;1.20;99.90;;;;;;5092359;28;19945;-73
2021/01/15 04:39:40;;;;;;;;;;;1.30;99.90;;;;;;5094395;28;19931;-70
2021/01/15 04:42:07;;;;;;;;;;;1.20;99.90;;;;;;5089939;28;20444;-70
2021/01/15 04:44:33;;;;;;;;;;;1.20;99.90;;;;;;5073501;28;20438;-72
2021/01/15 04:47:01;;;;;;;;;;;1.20;99.90;;;;;;5084338;28;19971;-68
2021/01/15 04:49:29;;;;;;;;;;;1.30;99.90;;;;;;5072297;28;19925;-70
2021/01/15 04:51:56;;;;;;;;;;;1.20;99.90;;;;;;5071852;28;19924;-68
2021/01/15 04:54:26;;;;;;;;;;;1.20;99.90;;;;;;5072170;28;19925;-70
2021/01/15 04:56:54;;;;;;;;;;;1.20;99.90;;;;;;5077528;28;19924;-73
2021/01/15 04:59:20;;;;;;;;;;;;;;;;;;5096622;28;19924;-74
2021/01/15 05:01:47;;;;;;;;;;;1.10;99.90;;;;;;5096646;28;20405;-73
2021/01/15 05:04:14;;;;;;;;;;;1.10;99.90;;;;;;5096906;28;19975;-73
2021/01/15 05:06:44;;;;;;;;;;;1.10;99.90;;;;;;5096608;28;20371;-73
2021/01/15 05:09:11;;;;;;;;;;;1.00;99.90;;;;;;5096573;28;19931;-70
2021/01/15 05:11:38;;;;;;;;;;;1.00;99.90;;;;;;5090851;28;20007;-71
2021/01/15 05:14:06;;;;;;;;;;;1.00;99.90;;;;;;5076227;28;19924;-71
2021/01/15 05:16:33;;;;;;;;;;;1.00;99.90;;;;;;5076125;28;19924;-71
2021/01/15 05:19:00;;;;;;;;;;;1.00;99.90;;;;;;5076107;28;19925;-69
2021/01/15 05:21:27;;;;;;;;;;;1.10;99.90;;;;;;5075020;28;19925;-68
2021/01/15 05:23:53;;;;;;;;;;;1.00;99.90;;;;;;5076187;28;19924;-68
2021/01/15 05:26:21;;;;;;;;;;;1.00;99.90;;;;;;5083896;28;19935;-68
2021/01/15 05:28:49;;;;;;;;;;;1.10;99.90;;;;;;5096341;28;19924;-73
2021/01/15 05:31:16;;;;;;;;;;;1.10;99.90;;;;;;5095677;28;20384;-71
2021/01/15 05:33:55;;;;;;;;;;;1.10;99.90;;;;;;5095947;28;19928;-70
2021/01/15 05:36:30;;;;;;;;;;;1.10;99.90;;;;;;5095876;28;19970;-70
2021/01/15 05:39:07;;;;;;;;;;;1.10;99.90;;;;;;5077899;28;19924;-72
2021/01/15 05:41:34;;;;;;;;;;;1.00;99.90;;;;;;5095048;28;19928;-71
2021/01/15 05:44:01;;;;;;;;;;;1.00;99.90;;;;;;5095817;28;19979;-69
2021/01/15 05:46:28;;;;;;;;;;;1.00;99.90;;;;;;5095279;28;19924;-71
2021/01/15 05:48:57;;;;;;;;;;;1.00;99.90;;;;;;5095562;28;20002;-72
2021/01/15 05:51:27;;;;;;;;;;;1.00;99.90;;;;;;5094612;28;19924;-73
2021/01/15 05:53:54;;;;;;;;;;;1.00;99.90;;;;;;5083699;28;19929;-69
2021/01/15 05:56:22;;;;;;;;;;;1.00;99.90;;;;;;5075122;28;20366;-73
2021/01/15 05:59:01;;;;;;;;;;;0.90;99.90;;;;;;5075214;28;19925;-74
2021/01/15 06:01:37;;;;;;;;;;;0.90;99.90;;;;;;5074802;28;20495;-74
2021/01/15 06:04:03;;;;;;;;;;;0.90;99.90;;;;;;5074980;28;20377;-72
2021/01/15 06:06:31;;;;;;;;;;;0.90;99.90;;;;;;5088121;28;19931;-68
2021/01/15 06:08:59;;;;;;;;;;;0.90;99.90;;;;;;5094800;28;19924;-70
2021/01/15 06:11:24;;;;;;;;;;;0.80;99.90;;;;;;5094785;28;19928;-70
2021/01/15 06:13:50;;;;;;;;;;;0.70;99.90;;;;;;5095284;28;19924;-73
2021/01/15 06:16:19;;;;;;;;;;;0.70;99.90;;;;;;5095269;28;20294;-70
2021/01/15 06:18:58;;;;;;;;;;;0.70;99.90;;;;;;5095259;28;19928;-69
2021/01/15 06:21:29;;;;;;;;;;;0.80;99.90;;;;;;5079785;28;19932;-70
2021/01/15 06:23:55;;;;;;;;;;;0.70;99.90;;;;;;5074735;28;20523;-69
2021/01/15 06:26:32;;;;;;;;;;;0.80;99.90;;;;;;5074870;28;19960;-68
2021/01/15 06:29:04;;;;;;;;;;;0.80;99.90;;;;;;5074623;28;19924;-68
2021/01/15 06:31:30;;;;;;;;;;;0.80;99.90;;;;;;5086420;28;19924;-70
2021/01/15 06:34:00;;;;;;;;;;;0.80;99.90;;;;;;5094813;28;19935;-67
2021/01/15 06:36:41;;;;;;;;;;;0.70;99.90;;;;;;5094364;28;19927;-70
2021/01/15 06:39:08;;;;;;;;;;;0.80;99.90;;;;;;5094485;28;19975;-69
2021/01/15 06:41:35;;;;;;;;;;;0.80;99.90;;;;;;5094254;28;20347;-69
2021/01/15 06:44:07;;;;;;;;;;;0.80;99.90;;;;;;5094699;28;19931;-69
2021/01/15 06:46:34;;;;;;;;;;;0.80;99.90;;;;;;5094538;28;20257;-70
2021/01/15 06:49:03;;;;;;;;;;;0.80;99.90;;;;;;5094486;28;19924;-70
2021/01/15 06:51:31;;;;;;;;;;;0.80;99.90;;;;;;5094015;28;19924;-70
2021/01/15 06:53:58;;;;;;;;;;;0.70;99.90;;;;;;5094355;28;19924;-68
2021/01/15 06:56:29;;;;;;;;;;;0.70;99.90;;;;;;5094475;28;19924;-67
2021/01/15 06:58:58;;;;;;;;;;;0.70;99.90;;;;;;5093889;28;19942;-71
2021/01/15 07:01:25;;;;;;;;;;;0.70;99.90;;;;;;5093844;28;19928;-72
2021/01/15 07:04:10;;;;;;;;;;;0.70;99.90;;;;;;5094660;28;19969;-71
2021/01/15 07:06:36;;;;;;;;;;;0.70;99.90;;;;;;5094544;28;19935;-68
2021/01/15 07:09:04;;;;;;;;;;;0.70;99.90;;;;;;5094282;28;19978;-71
2021/01/15 07:11:30;;;;;;;;;;;0.80;99.90;;;;;;5094126;28;19928;-71
2021/01/15 07:13:58;;;;;;;;;;;0.90;99.90;;;;;;5083286;28;19928;-70
2021/01/15 07:16:27;;;;;;;;;;;1.00;99.90;;;;;;5074064;28;19924;-68
2021/01/15 07:18:54;;;;;;;;;;;1.10;99.90;;;;;;5074155;28;19971;-68
2021/01/15 07:21:21;;;;;;;;;;;1.10;99.90;;;;;;5079274;28;19924;-69
2021/01/15 07:24:02;;;;;;;;;;;1.00;99.90;;;;;;5093893;28;20007;-68
2021/01/15 07:26:31;;;;;;;;;;;1.00;99.90;;;;;;5078300;28;19943;-69
2021/01/15 07:28:58;;;;;;;;;;;1.00;99.90;;;;;;5073671;28;19924;-70
2021/01/15 07:31:25;;;;;;;;;;;1.00;99.90;;;;;;5073292;28;20466;-74
2021/01/15 07:33:53;;;;;;;;;;;0.90;99.90;;;;;;5073508;28;19977;-70
2021/01/15 07:36:32;;;;;;;;;;;0.90;99.90;;;;;;5073478;28;19925;-74
2021/01/15 07:39:10;;;;;;;;;;;0.90;99.90;;;;;;5073362;28;19924;-70
2021/01/15 07:41:40;;;;;;;;;;;0.90;99.90;;;;;;5073063;28;19928;-70
2021/01/15 07:44:21;;;;;;;;;;;0.90;99.90;;;;;;5073016;28;19928;-73
2021/01/15 07:46:47;;;;;;;;;;;0.90;99.90;;;;;;5072266;28;20324;-69
2021/01/15 07:49:13;;;;;;;;;;;0.90;99.90;;;;;;5079002;28;19924;-70
2021/01/15 07:51:39;;;;;;;;;;;-1.20;99.90;;;;;;5092978;28;19931;-73
2021/01/15 07:54:05;;;;;;;;;;;1.00;99.90;;;;;;5093411;28;19928;-72
2021/01/15 07:56:31;;;;;;;;;;;0.90;99.90;;;;;;5093137;28;19985;-74
2021/01/15 07:58:57;;;;;;;;;;;0.90;99.90;;;;;;5092804;28;19931;-75
2021/01/15 08:01:23;;;;;;;;;;;0.90;99.90;;;;;;5092811;28;19924;-74
2021/01/15 08:03:53;;;;;;;;;;;0.90;99.90;;;;;;5093248;28;19924;-75
2021/01/15 08:06:19;;;;;;;;;;;0.90;99.90;;;;;;5093221;28;19928;-70
2021/01/15 08:09:02;;;;;;;;;;;0.90;99.90;;;;;;5093183;28;19924;-70
2021/01/15 08:11:29;;;;;;;;;;;1.00;99.90;;;;;;5092374;28;19924;-70
2021/01/15 08:14:14;;;;;;;;;;;0.90;99.90;;;;;;5092980;28;19924;-70
2021/01/15 08:16:41;;;;;;;;;;;0.90;99.90;;;;;;5077730;28;19985;-69
2021/01/15 08:19:09;;;;;;;;;;;1.00;99.90;;;;;;5072733;28;19925;-69
2021/01/15 08:21:35;;;;;;;;;;;1.00;99.90;;;;;;5087310;28;19924;-68
2021/01/15 08:24:01;;;;;;;;;;;1.00;99.90;;;;;;5092719;28;19924;-68
2021/01/15 08:26:31;;;;;;;;;;;1.00;99.90;;;;;;5092877;28;19924;-68
2021/01/15 08:28:57;;;;;;;;;;;0.90;99.90;;;;;;5092539;28;19931;-68
2021/01/15 08:31:23;;;;;;;;;;;0.90;99.90;;;;;;5092296;28;19924;-67
2021/01/15 08:34:00;;;;;;;;;;;1.00;99.90;;;;;;5092216;28;19977;-68
2021/01/15 08:36:28;;;;;;;;;;;0.90;99.90;;;;;;5092457;28;20289;-68
2021/01/15 08:38:56;;;;;;;;;;;0.80;99.90;;;;;;5092595;28;19924;-68
2021/01/15 08:41:23;;;;;;;;;;;0.80;99.90;;;;;;5092142;28;19924;-68
2021/01/15 08:43:50;;;;;;;;;;;0.80;99.90;;;;;;5092641;28;19931;-67
2021/01/15 08:46:17;;;;;;;;;;;0.80;99.90;;;;;;5092391;28;19928;-68
2021/01/15 08:48:43;;;;;;;;;;;0.80;99.90;;;;;;5084650;28;19931;-67
2021/01/15 08:51:09;;;;;;;;;;;0.80;99.90;;;;;;5071982;28;20285;-67
2021/01/15 08:54:03;;;;;;;;;;;0.90;99.90;;;;;;5072295;28;19935;-72
2021/01/15 08:56:33;;;;;;;;;;;0.90;99.90;;;;;;5072125;28;19925;-68
2021/01/15 08:58:59;;;;;;;;;;;0.90;99.90;;;;;;5072288;28;20289;-69
2021/01/15 09:01:29;;;;;;;;;;;1.00;99.90;;;;;;5071767;28;19929;-74
2021/01/15 09:03:56;;;;;;;;;;;1.00;99.90;;;;;;5071957;28;19932;-70
2021/01/15 09:06:23;;;;;;;;;;;0.90;99.90;;;;;;5083740;28;19924;-70
2021/01/15 09:08:52;;;;;;;;;;;0.90;99.90;;;;;;5091729;28;19934;-71
2021/01/15 09:11:18;;;;;;;;;;;0.90;99.90;;;;;;5091721;28;19924;-72
2021/01/15 09:13:45;;;;;;;;;;;0.90;99.90;;;;;;5092260;28;19924;-69
2021/01/15 09:16:16;;;;;;;;;;;0.90;99.90;;;;;;5088723;28;19970;-69
2021/01/15 09:18:42;;;;;;;;;;;0.90;99.90;;;;;;5071985;28;19931;-71
2021/01/15 09:21:08;;;;;;;;;;;0.90;99.90;;;;;;5071567;28;19925;-69
2021/01/15 09:23:34;;;;;;;;;;;1.00;99.90;;;;;;5072170;28;19995;-68
2021/01/15 09:26:01;;;;;;;;;;;0.90;99.90;;;;;;5071993;28;20389;-68
2021/01/15 09:28:27;;;;;;;;;;;1.00;99.90;;;;;;5071784;28;19925;-68
2021/01/15 09:30:53;;;;;;;;;;;0.90;99.90;;;;;;5074456;28;20022;-68
2021/01/15 09:33:19;;;;;;;;;;;0.90;99.90;;;;;;5091947;28;20311;-68
2021/01/15 09:35:45;;;;;;;;;;;0.80;99.90;;;;;;5091943;28;19935;-68
2021/01/15 09:38:11;;;;;;;;;;;0.80;99.90;;;;;;5092157;28;19938;-67
2021/01/15 09:40:37;;;;;;;;;;;0.90;99.90;;;;;;5091802;28;20434;-67
2021/01/15 09:43:03;;;;;;;;;;;0.80;99.90;;;;;;5091713;28;19947;-67
2021/01/15 09:45:29;;;;;;;;;;;0.80;99.90;;;;;;5079183;28;19931;-66
2021/01/15 09:47:55;;;;;;;;;;;0.80;99.90;;;;;;5075255;28;20109;-70
2021/01/15 09:50:21;;;;;;;;;;;0.80;99.90;;;;;;5075287;28;19928;-71
2021/01/15 09:52:47;;;;;;;;;;;0.90;99.90;;;;;;5075431;28;20369;-71
2021/01/15 09:55:13;;;;;;;;;;;1.00;99.90;;;;;;5081840;28;19931;-71
2021/01/15 09:57:43;;;;;;;;;;;1.00;99.90;;;;;;5095556;28;19931;-71
2021/01/15 10:00:11;;;;;;;;;;;1.10;99.90;;;;;;5095181;28;20406;-69
2021/01/15 10:02:37;;;;;;;;;;;1.10;99.90;;;;;;5095276;28;19990;-71
2021/01/15 10:05:03;;;;;;;;;;;1.10;99.90;;;;;;5082885;28;20377;-68
2021/01/15 10:07:29;;;;;;;;;;;1.10;99.90;;;;;;5089574;28;19931;-73
2021/01/15 10:09:55;;;;;;;;;;;1.10;99.90;;;;;;5094992;28;19924;-70
2021/01/15 10:12:21;;;;;;;;;;;1.10;99.90;;;;;;5095260;28;20392;-68
2021/01/15 10:14:47;;;;;;;;;;;1.20;99.90;;;;;;5094486;28;20366;-68
2021/01/15 10:17:14;;;;;;;;;;;1.20;99.90;;;;;;5094987;28;19953;-68
2021/01/15 10:19:40;;;;;;;;;;;1.20;99.90;;;;;;5095375;28;19924;-69
2021/01/15 10:22:06;;;;;;;;;;;1.20;99.90;;;;;;5094738;28;20300;-69
2021/01/15 10:24:32;;;;;;;;;;;1.30;99.90;;;;;;5089932;28;19970;-71
2021/01/15 10:26:58;;;;;;;;;;;1.30;99.90;;;;;;5074723;28;19925;-72
2021/01/15 10:29:24;;;;;;;;;;;1.30;99.90;;;;;;5074841;28;19947;-70
2021/01/15 10:31:54;;;;;;;;;;;1.30;99.90;;;;;;5074165;28;19925;-70
2021/01/15 10:34:20;;;;;;;;;;;1.40;99.90;;;;;;5074771;28;19979;-71
2021/01/15 10:36:47;;;;;;;;;;;1.50;99.90;;;;;;5074664;28;20403;-70
2021/01/15 10:39:13;;;;;;;;;;;1.60;99.90;;;;;;5081889;28;19924;-68
2021/01/15 10:41:40;;;;;;;;;;;1.70;99.90;;;;;;5085830;28;20007;-69
2021/01/15 10:44:07;;;;;;;;;;;1.80;99.90;;;;;;5074295;28;19928;-69
2021/01/15 10:46:35;;;;;;;;;;;2.00;99.90;;;;;;5074256;28;19924;-73
2021/01/15 10:49:02;;;;;;;;;;;2.00;99.90;;;;;;5074396;28;19947;-72
2021/01/15 10:51:29;;;;;;;;;;;2.00;99.90;;;;;;5073960;28;19925;-68
2021/01/15 10:53:55;;;;;;;;;;;2.10;99.90;;;;;;5074212;28;19924;-68
2021/01/15 10:56:21;;;;;;;;;;;2.40;99.90;;;;;;5073914;28;20309;-71
2021/01/15 10:58:47;;;;;;;;;;;2.90;99.90;;;;;;5079847;28;19931;-71
2021/01/15 11:01:13;;;;;;;;;;;3.30;99.90;;;;;;5094270;28;19924;-71
2021/01/15 11:03:41;;;;;;;;;;;3.40;99.90;;;;;;5094223;28;19931;-71
2021/01/15 11:06:07;;;;;;;;;;;3.30;99.90;;;;;;5094299;28;20022;-71
2021/01/15 11:08:34;;;;;;;;;;;3.20;99.90;;;;;;5094288;28;19924;-71
2021/01/15 11:11:00;;;;;;;;;;;2.90;99.90;;;;;;5092950;28;19924;-72
2021/01/15 11:13:26;;;;;;;;;;;2.60;99.90;;;;;;5093939;28;19928;-71
2021/01/15 11:15:52;;;;;;;;;;;2.50;99.90;;;;;;5075576;28;19925;-71
2021/01/15 11:18:18;;;;;;;;;;;2.30;99.90;;;;;;5073922;28;20301;-68
2021/01/15 11:20:44;;;;;;;;;;;4.10;99.90;;;;;;5073463;28;19925;-69
2021/01/15 11:23:13;;;;;;;;;;;1.90;99.90;;;;;;5073486;28;19932;-69
2021/01/15 11:25:43;;;;;;;;;;;1.80;99.90;;;;;;5073522;28;20023;-69
2021/01/15 11:28:09;;;;;;;;;;;1.70;99.90;;;;;;5073420;28;19930;-69
2021/01/15 11:30:35;;;;;;;;;;;1.50;99.90;;;;;;5092637;28;19924;-68
2021/01/15 11:33:02;;;;;;;;;;;1.50;99.90;;;;;;5093688;28;20339;-69
2021/01/15 11:35:28;;;;;;;;;;;1.30;99.90;;;;;;5074976;28;19928;-69
2021/01/15 11:37:58;;;;;;;;;;;1.20;99.90;;;;;;5084031;28;19925;-69
2021/01/15 11:40:24;;;;;;;;;;;1.10;99.90;;;;;;5073494;28;19924;-69
2021/01/15 11:42:54;;;;;;;;;;;1.10;99.90;;;;;;5073028;28;19928;-69
2021/01/15 11:45:20;;;;;;;;;;;1.00;99.90;;;;;;5073582;28;19986;-69
2021/01/15 11:47:50;;;;;;;;;;;1.10;99.90;;;;;;5073393;28;20359;-69
2021/01/15 11:50:16;;;;;;;;;;;1.10;99.90;;;;;;5072655;28;19929;-68
2021/01/15 11:52:42;;;;;;;;;;;1.00;99.90;;;;;;5072763;28;19924;-69
2021/01/15 11:55:08;;;;;;;;;;;0.90;99.90;;;;;;5072703;28;19972;-69
2021/01/15 11:57:34;;;;;;;;;;;0.90;99.90;;;;;;5073228;28;19932;-69
2021/01/15 12:00:01;;;;;;;;;;;0.90;99.90;;;;;;5072664;28;19925;-68
2021/01/15 12:02:30;;;;;;;;;;;0.90;99.90;;;;;;5076412;28;19924;-69
2021/01/15 12:04:56;;;;;;;;;;;0.90;99.90;;;;;;5093153;28;19928;-71
2021/01/15 12:07:22;;;;;;;;;;;1.00;99.90;;;;;;5092905;28;19925;-71
2021/01/15 12:09:48;;;;;;;;;;;0.90;99.90;;;;;;5092653;28;20304;-71
2021/01/15 12:12:14;;;;;;;;;;;0.90;99.90;;;;;;5092997;28;19977;-69
2021/01/15 12:14:40;;;;;;;;;;;0.80;99.90;;;;;;5092969;28;19977;-70
2021/01/15 12:17:06;;;;;;;;;;;0.80;99.90;;;;;;5088325;28;20387;-71
2021/01/15 12:19:32;;;;;;;;;;;0.80;99.90;;;;;;5079473;28;19929;-72
2021/01/15 12:21:58;;;;;;;;;;;0.80;99.90;;;;;;5075560;28;19978;-71
2021/01/15 12:24:24;;;;;;;;;;;0.80;99.90;;;;;;5072561;28;19935;-71
2021/01/15 12:26:51;;;;;;;;;;;0.80;99.90;;;;;;5072470;28;19924;-71
2021/01/15 12:29:17;;;;;;;;;;;0.70;99.90;;;;;;5072397;28;19925;-69
2021/01/15 12:31:43;;;;;;;;;;;0.70;99.90;;;;;;5075494;28;19931;-69
2021/01/15 12:34:10;;;;;;;;;;;0.70;99.90;;;;;;5072318;28;19932;-74
2021/01/15 12:36:36;;;;;;;;;;;0.70;99.90;;;;;;5072397;28;19936;-72
2021/01/15 12:39:02;;;;;;;;;;;0.60;99.90;;;;;;5072343;28;19924;-71
2021/01/15 12:41:28;;;;;;;;;;;0.60;99.90;;;;;;5072220;28;19931;-67
2021/01/15 12:43:54;;;;;;;;;;;0.60;99.90;;;;;;5072151;28;19925;-69
2021/01/15 12:46:20;;;;;;;;;;;0.50;99.90;;;;;;5072441;28;19932;-68
2021/01/15 12:48:46;;;;;;;;;;;0.60;99.90;;;;;;5085403;28;20396;-71
2021/01/15 12:51:13;;;;;;;;;;;0.60;99.90;;;;;;5091867;28;19924;-71
2021/01/15 12:53:39;;;;;;;;;;;0.60;99.90;;;;;;5092347;28;20323;-70
2021/01/15 12:56:05;;;;;;;;;;;0.60;99.90;;;;;;5091297;28;19924;-64
2021/01/15 12:58:31;;;;;;;;;;;0.60;99.90;;;;;;5092298;28;20015;-69
2021/01/15 13:00:59;;;;;;;;;;;0.60;99.90;;;;;;5092577;28;19924;-70
2021/01/15 13:03:25;;;;;;;;;;;0.60;99.90;;;;;;5092286;28;19924;-69
2021/01/15 13:05:51;;;;;;;;;;;0.60;99.90;;;;;;5092042;28;19924;-70
2021/01/15 13:08:18;;;;;;;;;;;0.60;99.90;;;;;;5091883;28;19929;-69
2021/01/15 13:10:45;;;;;;;;;;;0.70;99.90;;;;;;5088946;28;19932;-67
2021/01/15 13:13:11;;;;;;;;;;;0.70;99.90;;;;;;5083376;28;20407;-70
2021/01/15 13:15:37;;;;;;;;;;;0.70;99.90;;;;;;5091697;28;19928;-71
2021/01/15 13:18:03;;;;;;;;;;;0.60;99.90;;;;;;5091366;28;20415;-70
2021/01/15 13:20:30;;;;;;;;;;;0.70;99.90;;;;;;5090888;28;19990;-71
2021/01/15 13:22:56;;;;;;;;;;;0.70;99.90;;;;;;5097213;28;19931;-71
2021/01/15 13:25:24;;;;;;;;;;;0.70;99.90;;;;;;5116720;28;19924;-68
2021/01/15 13:27:51;;;;;;;;;;;0.70;99.90;;;;;;5116738;28;19973;-68
2021/01/15 13:30:18;;;;;;;;;;;0.70;99.90;;;;;;5116192;28;20015;-69
2021/01/15 13:32:44;;;;;;;;;;;0.70;99.90;;;;;;5116519;28;19924;-69
2021/01/15 13:35:10;;;;;;;;;;;0.80;99.90;;;;;;5116454;28;20392;-69
2021/01/15 13:37:37;;;;;;;;;;;0.70;99.90;;;;;;5116536;28;19923;-68
2021/01/15 13:40:07;;;;;;;;;;;0.80;99.90;;;;;;5116077;28;19924;-67
2021/01/15 13:42:34;;;;;;;;;;;0.80;99.90;;;;;;5116165;28;19923;-68
2021/01/15 13:45:00;;;;;;;;;;;0.80;99.90;;;;;;5116357;28;19930;-68
2021/01/15 13:47:26;;;;;;;;;;;0.80;99.90;;;;;;5116129;28;19951;-68
2021/01/15 13:49:52;;;;;;;;;;;0.70;99.90;;;;;;5115746;28;19923;-69
2021/01/15 13:52:18;;;;;;;;;;;0.70;99.90;;;;;;5116194;28;19949;-69
2021/01/15 13:54:44;;;;;;;;;;;0.60;99.90;;;;;;5115948;28;19924;-69
2021/01/15 13:57:10;;;;;;;;;;;0.60;99.90;;;;;;5115895;28;19931;-69
2021/01/15 13:59:36;;;;;;;;;;;0.50;99.90;;;;;;5116059;28;20419;-69
2021/01/15 14:02:02;;;;;;;;;;;0.60;99.90;;;;;;5115503;28;20307;-69
2021/01/15 14:04:28;;;;;;;;;;;-1.60;99.90;;;;;;5115897;28;19924;-69
2021/01/15 14:06:54;;;;;;;;;;;0.50;99.90;;;;;;5115799;28;19924;-69
2021/01/15 14:09:20;;;;;;;;;;;0.50;99.90;;;;;;5115752;28;20309;-68
2021/01/15 14:11:46;;;;;;;;;;;0.50;99.90;;;;;;5115299;28;19927;-69
2021/01/15 14:14:12;;;;;;;;;;;0.60;99.90;;;;;;5115643;28;19924;-69
2021/01/15 14:16:39;;;;;;;;;;;0.50;99.90;;;;;;5115495;28;19923;-70
2021/01/15 14:19:05;;;;;;;;;;;0.50;99.90;;;;;;5115636;28;19923;-68
2021/01/15 14:21:31;;;;;;;;;;;0.60;99.90;;;;;;5115333;28;20391;-68
2021/01/15 14:23:58;;;;;;;;;;;0.60;99.90;;;;;;5115339;28;19931;-68
2021/01/15 14:26:24;;;;;;;;;;;0.60;99.90;;;;;;5115166;28;20499;-68
2021/01/15 14:28:50;;;;;;;;;;;0.60;99.90;;;;;;5115323;28;19923;-68
2021/01/15 14:31:16;;;;;;;;;;;0.60;99.90;;;;;;5114424;28;20034;-69
2021/01/15 14:33:44;;;;;;;;;;;0.60;99.90;;;;;;5114291;28;19927;-69
2021/01/15 14:36:10;;;;;;;;;;;0.60;99.90;;;;;;5115381;28;19923;-69